createdAt,value
2022-10-28T00:00:52.333Z,6.65
2022-10-28T00:03:19.610Z,6.15
2022-10-28T00:05:46.543Z,7.25
2022-10-28T00:08:13.186Z,5.97
2022-10-28T00:10:39.895Z,6.05
2022-10-28T00:13:06.629Z,6.03
2022-10-28T00:15:34.618Z,6.35
2022-10-28T00:18:01.356Z,6.40
2022-10-28T00:20:30.385Z,6.57
2022-10-28T00:22:57.059Z,7.97
2022-10-28T00:25:24.837Z,5.97
2022-10-28T00:27:52.764Z,6.05
2022-10-28T00:30:20.267Z,5.22
2022-10-28T00:32:47.037Z,5.18
2022-10-28T00:35:13.751Z,5.90
2022-10-28T00:37:40.530Z,5.63
2022-10-28T00:40:07.694Z,7.85
2022-10-28T00:42:34.489Z,6.35
2022-10-28T00:45:02.913Z,6.15
2022-10-28T00:47:56.726Z,6.50
2022-10-28T00:50:23.558Z,6.25
2022-10-28T00:52:58.647Z,6.20
2022-10-28T00:55:26.061Z,5.68
2022-10-28T00:57:57.766Z,5.57
2022-10-28T01:00:25.646Z,6.55
2022-10-28T01:02:52.353Z,6.80
2022-10-28T01:05:27.893Z,6.28
2022-10-28T01:08:01.664Z,6.10
2022-10-28T01:10:48.816Z,5.85
2022-10-28T01:13:21.082Z,5.85
2022-10-28T01:15:54.017Z,5.47
2022-10-28T01:18:46.908Z,6.47
2022-10-28T01:21:36.422Z,6.38
2022-10-28T01:24:19.427Z,5.80
2022-10-28T01:27:26.669Z,6.55
2022-10-28T01:30:23.065Z,6.63
2022-10-28T01:33:07.580Z,6.63
2022-10-28T01:35:57.827Z,7.38
2022-10-28T01:38:54.033Z,6.20
2022-10-28T01:41:36.119Z,7.22
2022-10-28T01:44:15.272Z,6.55
2022-10-28T01:46:49.819Z,7.20
2022-10-28T01:49:30.592Z,6.63
2022-10-28T01:52:03.338Z,6.90
2022-10-28T01:54:33.758Z,6.32
2022-10-28T01:57:03.881Z,7.40
2022-10-28T01:59:31.619Z,6.88
2022-10-28T02:01:58.402Z,7.07
2022-10-28T02:04:25.278Z,7.25
2022-10-28T02:06:56.762Z,6.43
2022-10-28T02:10:02.781Z,7.20
2022-10-28T02:12:37.902Z,5.80
2022-10-28T02:15:19.476Z,7.78
2022-10-28T02:18:19.524Z,6.28
2022-10-28T02:21:19.254Z,6.95
2022-10-28T02:24:07.180Z,6.82
2022-10-28T02:26:46.846Z,7.32
2022-10-28T02:29:45.444Z,6.75
2022-10-28T02:32:19.304Z,6.55
2022-10-28T02:34:48.397Z,6.10
2022-10-28T02:37:21.041Z,6.53
2022-10-28T02:39:55.153Z,5.22
2022-10-28T02:42:28.762Z,6.18
2022-10-28T02:45:04.788Z,7.20
2022-10-28T02:47:35.806Z,6.53
2022-10-28T02:50:09.315Z,6.85
2022-10-28T02:52:36.588Z,7.63
2022-10-28T02:55:05.570Z,6.95
2022-10-28T02:57:35.571Z,7.00
2022-10-28T03:00:07.090Z,6.32
2022-10-28T03:02:34.059Z,6.30
2022-10-28T03:05:00.716Z,6.60
2022-10-28T03:07:27.350Z,7.20
2022-10-28T03:09:53.946Z,6.93
2022-10-28T03:12:20.622Z,6.50
2022-10-28T03:14:47.241Z,6.38
2022-10-28T03:17:13.901Z,7.60
2022-10-28T03:19:40.529Z,6.57
2022-10-28T03:22:07.164Z,6.50
2022-10-28T03:24:33.881Z,6.38
2022-10-28T03:27:00.736Z,6.47
2022-10-28T03:29:27.462Z,5.93
2022-10-28T03:31:54.101Z,6.55
2022-10-28T03:34:20.731Z,6.20
2022-10-28T03:36:47.467Z,6.75
2022-10-28T03:39:14.502Z,6.68
2022-10-28T03:41:41.331Z,6.20
2022-10-28T03:44:08.135Z,6.22
2022-10-28T03:46:36.104Z,5.72
2022-10-28T03:49:03.701Z,6.28
2022-10-28T03:51:30.384Z,6.80
2022-10-28T03:53:56.993Z,6.28
2022-10-28T03:56:26.692Z,6.78
2022-10-28T04:01:25.042Z,5.95
2022-10-28T04:03:51.830Z,5.75
2022-10-28T04:06:18.587Z,6.13
2022-10-28T04:08:45.344Z,6.43
2022-10-28T04:11:12.010Z,6.60
2022-10-28T04:13:38.618Z,6.93
2022-10-28T04:16:05.817Z,6.70
2022-10-28T04:18:32.476Z,6.30
2022-10-28T04:20:59.091Z,6.38
2022-10-28T04:23:25.786Z,5.93
2022-10-28T04:25:54.096Z,6.20
2022-10-28T04:28:24.119Z,5.97
2022-10-28T04:30:50.921Z,6.80
2022-10-28T04:33:17.546Z,6.40
2022-10-28T04:35:44.974Z,6.50
2022-10-28T04:38:12.824Z,5.82
2022-10-28T04:40:39.653Z,6.75
2022-10-28T04:43:08.577Z,6.40
2022-10-28T04:45:37.388Z,5.82
2022-10-28T04:48:04.264Z,6.57
2022-10-28T04:50:31.066Z,7.70
2022-10-28T04:52:57.722Z,6.60
2022-10-28T04:55:24.488Z,6.28
2022-10-28T04:57:58.787Z,6.63
2022-10-28T05:00:27.602Z,6.97
2022-10-28T05:02:54.998Z,6.35
2022-10-28T05:05:22.156Z,6.65
2022-10-28T05:07:48.925Z,6.38
2022-10-28T05:10:17.806Z,6.32
2022-10-28T05:12:45.470Z,6.38
2022-10-28T05:15:13.622Z,6.38
2022-10-28T05:17:43.386Z,7.30
2022-10-28T05:20:11.748Z,6.85
2022-10-28T05:22:38.646Z,6.82
2022-10-28T05:25:05.688Z,7.68
2022-10-28T05:27:32.443Z,7.80
2022-10-28T05:29:59.078Z,7.30
2022-10-28T05:32:25.807Z,8.57
2022-10-28T05:34:52.472Z,7.70
2022-10-28T05:37:19.140Z,7.30
2022-10-28T05:39:45.796Z,7.80
2022-10-28T05:42:12.469Z,6.65
2022-10-28T05:44:39.186Z,7.03
2022-10-28T05:47:05.813Z,7.53
2022-10-28T05:49:32.511Z,6.82
2022-10-28T05:51:59.158Z,7.25
2022-10-28T05:54:26.266Z,7.15
2022-10-28T05:56:52.964Z,8.05
2022-10-28T05:59:19.615Z,8.48
2022-10-28T06:01:46.411Z,8.60
2022-10-28T06:04:13.206Z,7.45
2022-10-28T06:06:39.929Z,7.30
2022-10-28T06:09:06.568Z,8.05
2022-10-28T06:11:33.516Z,8.00
2022-10-28T06:14:00.338Z,9.65
2022-10-28T06:16:27.010Z,8.85
2022-10-28T06:18:53.622Z,9.27
2022-10-28T06:21:20.280Z,14.02
2022-10-28T06:23:46.927Z,11.88
2022-10-28T06:26:13.567Z,10.50
2022-10-28T06:28:40.218Z,12.38
2022-10-28T06:31:07.763Z,11.68
2022-10-28T06:33:35.488Z,13.60
2022-10-28T06:36:02.830Z,14.13
2022-10-28T06:38:29.557Z,11.45
2022-10-28T06:40:57.921Z,10.13
2022-10-28T06:43:24.642Z,8.77
2022-10-28T06:45:55.122Z,8.45
2022-10-28T06:48:23.967Z,8.45
2022-10-28T06:50:50.627Z,11.00
2022-10-28T06:53:17.316Z,8.57
2022-10-28T06:55:48.664Z,7.85
2022-10-28T06:58:15.471Z,8.95
2022-10-28T07:00:42.084Z,8.40
2022-10-28T07:03:10.440Z,10.35
2022-10-28T07:05:37.248Z,8.60
2022-10-28T07:08:04.963Z,9.95
2022-10-28T07:10:31.868Z,7.72
2022-10-28T07:12:58.574Z,8.18
2022-10-28T07:15:25.272Z,7.88
2022-10-28T07:17:56.075Z,8.52
2022-10-28T07:20:23.989Z,7.43
2022-10-28T07:23:01.463Z,7.43
2022-10-28T07:25:31.040Z,8.23
2022-10-28T07:27:58.656Z,7.80
2022-10-28T07:30:26.606Z,8.95
2022-10-28T07:32:53.980Z,7.07
2022-10-28T07:35:21.633Z,7.50
2022-10-28T07:37:48.337Z,8.38
2022-10-28T07:40:15.225Z,8.00
2022-10-28T07:42:41.956Z,9.07
2022-10-28T07:45:09.007Z,7.65
2022-10-28T07:47:35.769Z,7.13
2022-10-28T07:50:03.041Z,7.43
2022-10-28T07:52:29.771Z,7.17
2022-10-28T07:54:56.519Z,7.03
2022-10-28T07:57:23.237Z,6.93
2022-10-28T07:59:49.948Z,7.32
2022-10-28T08:02:22.440Z,6.70
2022-10-28T08:04:49.566Z,7.38
2022-10-28T08:07:16.496Z,7.28
2022-10-28T08:09:43.146Z,7.35
2022-10-28T08:12:13.592Z,7.50
2022-10-28T08:14:40.467Z,6.65
2022-10-28T08:17:07.720Z,7.78
2022-10-28T08:19:34.616Z,7.47
2022-10-28T08:22:02.339Z,6.50
2022-10-28T08:24:29.022Z,6.55
2022-10-28T08:26:55.887Z,6.25
2022-10-28T08:29:26.391Z,5.82
2022-10-28T08:31:57.732Z,5.90
2022-10-28T08:34:29.172Z,6.22
2022-10-28T08:36:56.679Z,5.80
2022-10-28T08:39:23.375Z,6.13
2022-10-28T08:42:27.848Z,6.60
2022-10-28T08:45:22.476Z,5.65
2022-10-28T08:48:14.548Z,6.15
2022-10-28T08:50:52.050Z,6.38
2022-10-28T08:53:27.009Z,6.65
2022-10-28T08:55:59.796Z,6.55
2022-10-28T08:58:34.313Z,5.80
2022-10-28T09:01:01.420Z,5.95
2022-10-28T09:03:38.923Z,6.38
2022-10-28T09:06:07.834Z,6.78
2022-10-28T09:08:39.214Z,7.28
2022-10-28T09:11:39.391Z,5.90
2022-10-28T09:14:08.872Z,5.60
2022-10-28T09:16:44.321Z,5.60
2022-10-28T09:19:15.471Z,6.00
2022-10-28T09:21:50.702Z,7.28
2022-10-28T09:24:24.042Z,5.70
2022-10-28T09:27:20.342Z,6.68
2022-10-28T09:30:14.378Z,6.18
2022-10-28T09:32:58.442Z,6.13
2022-10-28T09:35:28.368Z,5.13
2022-10-28T09:38:05.936Z,5.82
2022-10-28T09:40:36.193Z,6.18
2022-10-28T09:43:08.048Z,5.72
2022-10-28T09:45:40.044Z,5.47
2022-10-28T09:48:12.483Z,4.50
2022-10-28T09:50:39.489Z,6.00
2022-10-28T09:53:42.718Z,5.30
2022-10-28T09:56:10.383Z,5.90
2022-10-28T09:58:40.278Z,5.85
2022-10-28T10:01:06.965Z,5.72
2022-10-28T10:03:33.647Z,5.70
2022-10-28T10:06:11.894Z,7.03
2022-10-28T10:08:40.419Z,6.28
2022-10-28T10:11:25.950Z,5.18
2022-10-28T10:13:54.003Z,5.75
2022-10-28T10:16:45.860Z,6.40
2022-10-28T10:21:45.365Z,6.07
2022-10-28T10:24:36.561Z,5.38
2022-10-28T10:27:17.326Z,6.20
2022-10-28T10:29:50.281Z,5.67
2022-10-28T10:32:21.209Z,5.55
2022-10-28T10:35:13.967Z,5.70
2022-10-28T10:37:47.048Z,6.25
2022-10-28T10:40:22.784Z,5.72
2022-10-28T10:43:09.660Z,6.13
2022-10-28T10:45:36.865Z,5.97
2022-10-28T10:48:07.792Z,5.40
2022-10-28T10:50:37.698Z,5.65
2022-10-28T10:53:04.723Z,4.95
2022-10-28T10:55:34.587Z,5.43
2022-10-28T10:58:02.625Z,4.22
2022-10-28T11:00:33.841Z,5.30
2022-10-28T11:03:01.729Z,5.38
2022-10-28T11:05:35.679Z,5.53
2022-10-28T11:08:06.542Z,4.65
2022-10-28T11:10:35.089Z,4.50
2022-10-28T11:13:23.520Z,4.82
2022-10-28T11:16:00.669Z,5.38
2022-10-28T11:18:29.154Z,4.22
2022-10-28T11:21:14.205Z,5.15
2022-10-28T11:24:04.734Z,5.50
2022-10-28T11:26:36.578Z,4.20
2022-10-28T11:29:07.549Z,4.20
2022-10-28T11:32:01.458Z,5.35
2022-10-28T11:34:44.609Z,4.50
2022-10-28T11:37:27.920Z,4.32
2022-10-28T11:40:03.273Z,4.68
2022-10-28T11:43:02.137Z,4.65
2022-10-28T11:45:51.195Z,5.03
2022-10-28T11:48:43.249Z,4.80
2022-10-28T11:53:48.111Z,4.13
2022-10-28T11:56:26.808Z,4.50
2022-10-28T11:59:10.012Z,5.28
2022-10-28T12:01:54.333Z,4.75
2022-10-28T12:04:58.626Z,4.72
2022-10-28T12:07:33.498Z,4.93
2022-10-28T12:10:24.230Z,4.05
2022-10-28T12:13:22.429Z,5.80
2022-10-28T12:16:10.503Z,4.72
2022-10-28T12:19:11.194Z,4.18
2022-10-28T12:21:45.883Z,4.35
2022-10-28T12:24:17.317Z,3.88
2022-10-28T12:29:23.758Z,3.92
2022-10-28T12:31:57.218Z,3.45
2022-10-28T12:34:32.414Z,3.45
2022-10-28T12:37:05.925Z,3.92
2022-10-28T12:39:38.362Z,4.50
2022-10-28T12:42:15.059Z,4.32
2022-10-28T12:44:42.279Z,3.55
2022-10-28T12:47:20.899Z,3.78
2022-10-28T12:50:12.215Z,4.50
2022-10-28T12:53:06.066Z,3.30
2022-10-28T12:55:57.999Z,4.43
2022-10-28T12:58:41.925Z,3.95
2022-10-28T13:01:15.418Z,4.35
2022-10-28T13:03:42.380Z,4.75
2022-10-28T13:06:17.902Z,4.40
2022-10-28T13:09:15.492Z,4.82
2022-10-28T13:12:15.994Z,4.55
2022-10-28T13:17:46.334Z,4.03
2022-10-28T13:20:17.111Z,4.35
2022-10-28T13:23:28.757Z,3.88
2022-10-28T13:26:06.371Z,3.88
2022-10-28T13:28:44.820Z,4.18
2022-10-28T13:31:11.758Z,4.63
2022-10-28T13:33:39.214Z,3.90
2022-10-28T13:36:42.697Z,4.00
2022-10-28T13:39:45.564Z,4.03
2022-10-28T13:42:15.400Z,3.97
2022-10-28T13:44:53.672Z,3.60
2022-10-28T13:47:34.494Z,3.58
2022-10-28T13:50:03.987Z,4.67
2022-10-28T13:52:31.263Z,4.15
2022-10-28T13:55:01.049Z,3.67
2022-10-28T13:57:32.965Z,4.43
2022-10-28T14:00:03.969Z,4.85
2022-10-28T14:02:40.239Z,4.03
2022-10-28T14:05:10.668Z,3.75
2022-10-28T14:07:51.430Z,4.75
2022-10-28T14:10:32.421Z,4.07
2022-10-28T14:13:06.850Z,4.50
2022-10-28T14:15:40.831Z,4.15
2022-10-28T14:18:42.329Z,3.85
2022-10-28T14:21:10.231Z,3.65
2022-10-28T14:23:42.647Z,4.20
2022-10-28T14:26:09.349Z,3.47
2022-10-28T14:28:36.070Z,4.47
2022-10-28T14:31:09.222Z,4.45
2022-10-28T14:33:43.267Z,4.32
2022-10-28T14:36:18.995Z,3.60
2022-10-28T14:39:04.200Z,3.50
2022-10-28T14:42:02.086Z,5.05
2022-10-28T14:44:37.589Z,4.20
2022-10-28T14:47:25.539Z,5.55
2022-10-28T14:50:06.292Z,3.72
2022-10-28T14:52:36.818Z,4.33
2022-10-28T14:55:07.330Z,4.35
2022-10-28T14:57:34.820Z,4.35
2022-10-28T15:00:07.918Z,4.35
2022-10-28T15:02:37.725Z,4.30
2022-10-28T15:05:13.671Z,4.30
2022-10-28T15:07:41.753Z,4.32
2022-10-28T15:10:28.401Z,3.78
2022-10-28T15:12:57.346Z,4.63
2022-10-28T15:15:26.826Z,5.15
2022-10-28T15:17:54.332Z,3.63
2022-10-28T15:20:20.916Z,3.60
2022-10-28T15:22:47.581Z,4.05
2022-10-28T15:25:15.976Z,4.30
2022-10-28T15:27:44.748Z,5.18
2022-10-28T15:30:26.079Z,4.05
2022-10-28T15:32:54.091Z,4.88
2022-10-28T15:35:27.087Z,4.78
2022-10-28T15:38:00.141Z,4.00
2022-10-28T15:40:32.056Z,4.45
2022-10-28T15:43:01.663Z,5.20
2022-10-28T15:45:31.034Z,4.80
2022-10-28T15:47:59.009Z,3.92
2022-10-28T15:50:33.925Z,4.05
2022-10-28T15:53:09.629Z,6.00
2022-10-28T15:58:32.232Z,4.60
2022-10-28T16:00:59.142Z,4.30
2022-10-28T16:03:41.000Z,4.10
2022-10-28T16:08:46.511Z,5.25
2022-10-28T16:11:19.893Z,5.68
2022-10-28T16:13:48.878Z,3.88
2022-10-28T16:16:25.565Z,4.43
2022-10-28T16:18:58.579Z,4.55
2022-10-28T16:21:26.791Z,4.38
2022-10-28T16:23:56.291Z,3.88
2022-10-28T16:26:23.356Z,4.07
2022-10-28T16:28:50.271Z,4.45
2022-10-28T16:31:18.348Z,5.45
2022-10-28T16:33:45.480Z,4.50
2022-10-28T16:36:12.451Z,4.90
2022-10-28T16:38:39.580Z,4.97
2022-10-28T16:41:12.376Z,6.28
2022-10-28T16:43:39.058Z,5.45
2022-10-28T16:46:05.858Z,5.70
2022-10-28T16:48:32.483Z,4.53
2022-10-28T16:51:02.319Z,6.05
2022-10-28T16:53:29.168Z,5.50
2022-10-28T16:56:01.576Z,5.00
2022-10-28T16:58:29.078Z,4.10
2022-10-28T17:00:56.198Z,4.93
2022-10-28T17:03:23.112Z,5.18
2022-10-28T17:05:50.037Z,5.32
2022-10-28T17:08:26.278Z,4.78
2022-10-28T17:11:04.572Z,5.63
2022-10-28T17:13:31.240Z,4.78
2022-10-28T17:15:57.988Z,4.53
2022-10-28T17:18:24.944Z,4.55
2022-10-28T17:21:02.073Z,5.15
2022-10-28T17:23:29.638Z,4.25
2022-10-28T17:26:00.581Z,4.20
2022-10-28T17:28:27.607Z,4.72
2022-10-28T17:30:54.346Z,4.82
2022-10-28T17:33:21.035Z,5.03
2022-10-28T17:35:47.672Z,5.03
2022-10-28T17:38:14.323Z,5.28
2022-10-28T17:40:40.954Z,6.38
2022-10-28T17:43:07.629Z,5.57
2022-10-28T17:45:34.334Z,5.72
2022-10-28T17:48:00.958Z,5.82
2022-10-28T17:50:27.632Z,5.45
2022-10-28T17:52:54.523Z,6.68
2022-10-28T17:55:21.533Z,7.25
2022-10-28T17:57:48.328Z,6.95
2022-10-28T18:00:15.376Z,7.05
2022-10-28T18:02:42.115Z,8.13
2022-10-28T18:05:09.108Z,7.90
2022-10-28T18:07:35.861Z,7.07
2022-10-28T18:10:02.533Z,6.85
2022-10-28T18:12:29.171Z,6.32
2022-10-28T18:14:55.808Z,6.05
2022-10-28T18:17:22.405Z,7.07
2022-10-28T18:19:49.046Z,6.13
2022-10-28T18:22:15.830Z,6.43
2022-10-28T18:24:42.766Z,7.85
2022-10-28T18:27:09.489Z,6.68
2022-10-28T18:29:36.102Z,8.15
2022-10-28T18:32:04.477Z,6.40
2022-10-28T18:34:31.818Z,5.68
2022-10-28T18:36:58.838Z,6.35
2022-10-28T18:39:25.469Z,6.10
2022-10-28T18:41:52.182Z,5.60
2022-10-28T18:44:21.535Z,6.00
2022-10-28T18:46:48.276Z,6.18
2022-10-28T18:49:14.883Z,5.75
2022-10-28T18:51:41.607Z,5.47
2022-10-28T18:54:08.297Z,6.55
2022-10-28T18:56:35.068Z,5.90
2022-10-28T18:59:03.351Z,5.65
2022-10-28T19:01:31.610Z,5.15
2022-10-28T19:04:00.585Z,6.15
2022-10-28T19:06:32.599Z,5.55
2022-10-28T19:09:01.997Z,5.53
2022-10-28T19:11:31.028Z,6.35
2022-10-28T19:13:59.608Z,6.13
2022-10-28T19:16:27.423Z,5.93
2022-10-28T19:18:58.414Z,5.97
2022-10-28T19:21:26.476Z,5.97
2022-10-28T19:23:53.708Z,5.72
2022-10-28T19:26:20.655Z,6.05
2022-10-28T19:28:48.718Z,6.43
2022-10-28T19:31:18.045Z,5.38
2022-10-28T19:33:45.231Z,6.15
2022-10-28T19:36:15.019Z,6.75
2022-10-28T19:38:41.704Z,6.63
2022-10-28T19:41:11.307Z,5.95
2022-10-28T19:43:38.177Z,7.15
2022-10-28T19:46:13.648Z,6.88
2022-10-28T19:48:42.453Z,6.35
2022-10-28T19:51:12.529Z,7.20
2022-10-28T19:53:39.295Z,7.15
2022-10-28T19:56:06.464Z,7.20
2022-10-28T19:58:33.567Z,6.95
2022-10-28T20:01:05.629Z,6.93
2022-10-28T20:03:34.598Z,7.55
2022-10-28T20:06:05.160Z,7.80
2022-10-28T20:08:34.720Z,7.38
2022-10-28T20:11:04.010Z,7.13
2022-10-28T20:13:31.060Z,7.63
2022-10-28T20:16:01.661Z,6.88
2022-10-28T20:18:32.638Z,7.38
2022-10-28T20:21:07.372Z,5.93
2022-10-28T20:23:35.647Z,7.57
2022-10-28T20:26:05.963Z,5.95
2022-10-28T20:28:33.511Z,6.03
2022-10-28T20:31:10.208Z,6.22
2022-10-28T20:33:39.273Z,6.57
2022-10-28T20:36:07.208Z,7.18
2022-10-28T20:38:33.893Z,7.20
2022-10-28T20:41:00.975Z,6.47
2022-10-28T20:43:29.127Z,7.10
2022-10-28T20:46:00.692Z,7.00
2022-10-28T20:51:00.216Z,6.18
2022-10-28T20:53:31.144Z,7.70
2022-10-28T20:55:58.267Z,7.18
2022-10-28T20:58:28.412Z,6.65
2022-10-28T21:01:01.013Z,7.90
2022-10-28T21:03:27.674Z,7.55
2022-10-28T21:05:54.294Z,7.03
2022-10-28T21:08:20.924Z,7.07
2022-10-28T21:10:47.543Z,8.13
2022-10-28T21:13:14.215Z,7.50
2022-10-28T21:15:43.764Z,7.25
2022-10-28T21:18:10.480Z,7.57
2022-10-28T21:20:38.687Z,7.88
2022-10-28T21:23:06.634Z,7.90
2022-10-28T21:25:33.541Z,8.07
2022-10-28T21:28:00.886Z,7.60
2022-10-28T21:30:27.697Z,7.43
2022-10-28T21:32:54.849Z,8.63
2022-10-28T21:35:22.229Z,7.35
2022-10-28T21:37:49.811Z,7.10
2022-10-28T21:40:16.598Z,8.60
2022-10-28T21:42:48.573Z,8.30
2022-10-28T21:45:15.287Z,8.10
2022-10-28T21:47:41.951Z,8.20
2022-10-28T21:50:08.797Z,8.20
2022-10-28T21:52:35.648Z,8.10
2022-10-28T21:55:09.722Z,8.52
2022-10-28T21:57:46.857Z,7.75
2022-10-28T22:00:14.152Z,8.15
2022-10-28T22:02:41.491Z,8.30
2022-10-28T22:05:08.415Z,7.85
2022-10-28T22:07:36.040Z,6.97
2022-10-28T22:10:03.449Z,8.27
2022-10-28T22:12:30.093Z,9.85
2022-10-28T22:14:56.722Z,8.50
2022-10-28T22:17:23.399Z,7.65
2022-10-28T22:19:52.250Z,7.40
2022-10-28T22:22:18.920Z,7.80
2022-10-28T22:24:45.562Z,8.02
2022-10-28T22:27:12.221Z,9.05
2022-10-28T22:29:38.866Z,9.13
2022-10-28T22:32:05.749Z,8.07
2022-10-28T22:34:32.416Z,9.88
2022-10-28T22:36:59.096Z,9.55
2022-10-28T22:39:25.777Z,7.85
2022-10-28T22:41:52.408Z,9.07
2022-10-28T22:44:19.057Z,8.27
2022-10-28T22:46:45.684Z,6.78
2022-10-28T22:49:12.394Z,7.85
2022-10-28T22:51:38.995Z,7.78
2022-10-28T22:54:05.644Z,9.02
2022-10-28T22:56:32.278Z,8.43
2022-10-28T22:59:00.794Z,7.43
2022-10-28T23:01:28.916Z,7.95
2022-10-28T23:03:55.979Z,7.97
2022-10-28T23:06:24.648Z,9.15
2022-10-28T23:08:51.649Z,8.18
2022-10-28T23:11:20.463Z,7.88
2022-10-28T23:13:51.265Z,7.95
2022-10-28T23:16:18.237Z,8.77
2022-10-28T23:18:45.334Z,8.73
2022-10-28T23:21:17.238Z,8.90
2022-10-28T23:23:49.743Z,7.82
2022-10-28T23:26:19.791Z,9.77
2022-10-28T23:28:50.779Z,9.82
2022-10-28T23:31:17.469Z,8.52
2022-10-28T23:33:44.280Z,8.32
2022-10-28T23:36:12.995Z,9.45
2022-10-28T23:38:39.855Z,8.45
2022-10-28T23:41:09.160Z,8.85
2022-10-28T23:43:35.964Z,8.15
2022-10-28T23:46:02.640Z,9.68
2022-10-28T23:48:29.344Z,7.70
2022-10-28T23:50:56.101Z,8.90
2022-10-28T23:53:23.204Z,8.48
2022-10-28T23:55:51.044Z,8.63
2022-10-28T23:58:28.512Z,8.40
